Time;durP1;ratioP1;P1;durP2;ratioP2;P2;SDS_P1;SDS_P2;PMS_P1;PMS_P2;Temp;Humidity;BMP_temperature;BMP_pressure;BME280_temperature;BME280_humidity;BME280_pressure;Samples;Min_cycle;Max_cycle;Signal;HPM_P1;HPM_P2
2021/05/29 00:01:54;;;;;;;3.65;0.63;;;;;;;;;;4915365;29;20122;-54
2021/05/29 00:04:20;;;;;;;3.38;0.40;;;;;;;;;;4913206;29;20039;-55
2021/05/29 00:06:46;;;;;;;4.45;0.73;;;;;;;;;;4916333;29;21157;-56
2021/05/29 00:09:12;;;;;;;2.42;0.70;;;;;;;;;;4914855;29;20052;-56
2021/05/29 00:11:38;;;;;;;1.90;0.60;;;;;;;;;;4916754;29;20471;-56
2021/05/29 00:14:04;;;;;;;5.47;0.70;;;;;;;;;;4914926;29;20040;-54
2021/05/29 00:16:30;;;;;;;2.05;0.40;;;;;;;;;;4912805;29;20048;-56
2021/05/29 00:18:56;;;;;;;1.00;0.40;;;;;;;;;;4913362;29;20796;-56
2021/05/29 00:21:21;;;;;;;4.63;0.60;;;;;;;;;;4913187;29;20047;-55
2021/05/29 00:23:47;;;;;;;1.30;0.40;;;;;;;;;;4913136;29;20809;-56
2021/05/29 00:26:13;;;;;;;1.77;0.50;;;;;;;;;;4915734;29;20846;-56
2021/05/29 00:28:39;;;;;;;1.23;0.40;;;;;;;;;;4915327;29;20054;-55
2021/05/29 00:31:05;;;;;;;1.13;0.40;;;;;;;;;;4915543;29;20054;-53
2021/05/29 00:33:30;;;;;;;0.20;0.20;;;;;;;;;;4914525;29;20036;-54
2021/05/29 00:35:56;;;;;;;1.63;0.65;;;;;;;;;;4915378;29;20044;-55
2021/05/29 00:38:22;;;;;;;0.68;0.30;;;;;;;;;;4914430;29;20410;-54
2021/05/29 00:40:48;;;;;;;1.20;0.40;;;;;;;;;;4914068;29;20047;-54
2021/05/29 00:43:14;;;;;;;1.45;0.40;;;;;;;;;;4916758;29;20225;-56
2021/05/29 00:45:40;;;;;;;0.82;0.30;;;;;;;;;;4915419;29;20054;-55
2021/05/29 00:48:06;;;;;;;2.72;0.80;;;;;;;;;;4919337;29;20052;-55
2021/05/29 00:50:32;;;;;;;1.98;0.55;;;;;;;;;;4901969;29;20637;-57
2021/05/29 00:52:58;;;;;;;1.80;0.30;;;;;;;;;;4917738;29;20091;-55
2021/05/29 00:55:24;;;;;;;1.23;0.40;;;;;;;;;;4918773;29;20043;-57
2021/05/29 00:57:51;;;;;;;0.82;0.40;;;;;;;;;;4918838;29;20087;-55
2021/05/29 01:00:18;;;;;;;2.72;0.50;;;;;;;;;;4918977;29;20050;-55
2021/05/29 01:02:45;;;;;;;3.50;0.60;;;;;;;;;;4912284;29;20043;-52
2021/05/29 01:05:11;;;;;;;2.78;0.60;;;;;;;;;;4916798;29;20040;-57
2021/05/29 01:07:37;;;;;;;1.73;0.40;;;;;;;;;;4920292;29;20554;-56
2021/05/29 01:10:04;;;;;;;0.95;0.32;;;;;;;;;;4919713;29;20055;-57
2021/05/29 01:12:30;;;;;;;0.65;0.30;;;;;;;;;;4916946;29;20360;-58
2021/05/29 01:14:58;;;;;;;0.40;0.40;;;;;;;;;;4917240;28;20043;-57
2021/05/29 01:17:25;;;;;;;2.20;0.50;;;;;;;;;;4916209;29;20035;-53
2021/05/29 01:19:51;;;;;;;1.23;0.40;;;;;;;;;;4920371;29;20079;-55
2021/05/29 01:22:35;;;;;;;2.63;0.40;;;;;;;;;;4921103;29;20039;-55
2021/05/29 01:25:05;;;;;;;5.53;0.73;;;;;;;;;;4919400;29;20109;-55
2021/05/29 01:27:31;;;;;;;1.30;0.50;;;;;;;;;;4917843;29;20043;-57
2021/05/29 01:29:57;;;;;;;5.05;1.48;;;;;;;;;;4919069;29;20063;-54
2021/05/29 01:32:32;;;;;;;8.68;1.00;;;;;;;;;;4917720;29;20046;-55
2021/05/29 01:34:59;;;;;;;4.20;0.77;;;;;;;;;;4917932;29;20040;-54
2021/05/29 01:37:25;;;;;;;4.35;0.60;;;;;;;;;;4919141;29;20700;-55
2021/05/29 01:39:52;;;;;;;1.75;0.40;;;;;;;;;;4922480;29;20099;-53
2021/05/29 01:42:18;;;;;;;3.47;0.55;;;;;;;;;;4927668;29;20507;-56
2021/05/29 01:44:44;;;;;;;1.00;0.30;;;;;;;;;;4920917;29;20039;-56
2021/05/29 01:47:10;;;;;;;1.33;0.40;;;;;;;;;;4922371;29;20047;-56
2021/05/29 01:49:36;;;;;;;7.40;0.57;;;;;;;;;;4918977;29;20122;-56
2021/05/29 01:52:02;;;;;;;3.58;0.30;;;;;;;;;;4918544;29;20044;-56
2021/05/29 01:54:27;;;;;;;2.83;0.50;;;;;;;;;;4916513;29;20503;-57
2021/05/29 01:56:56;;;;;;;3.13;0.80;;;;;;;;;;4917126;29;20071;-56
2021/05/29 01:59:22;;;;;;;0.75;0.40;;;;;;;;;;4915395;29;20056;-55
2021/05/29 02:01:48;;;;;;;1.52;0.40;;;;;;;;;;4914762;29;20054;-56
2021/05/29 02:04:14;;;;;;;0.75;0.38;;;;;;;;;;4916190;29;20036;-57
2021/05/29 02:06:39;;;;;;;1.55;0.40;;;;;;;;;;4916926;29;20050;-56
2021/05/29 02:09:06;;;;;;;6.22;1.00;;;;;;;;;;4916734;29;20060;-56
2021/05/29 02:11:31;;;;;;;1.50;0.50;;;;;;;;;;4916329;29;20052;-57
2021/05/29 02:13:57;;;;;;;0.40;0.30;;;;;;;;;;4914617;29;20035;-56
2021/05/29 02:16:23;;;;;;;1.70;0.40;;;;;;;;;;4915399;29;20067;-56
2021/05/29 02:18:49;;;;;;;4.80;0.50;;;;;;;;;;4916185;29;20044;-57
2021/05/29 02:21:15;;;;;;;0.73;0.30;;;;;;;;;;4915776;29;20043;-55
2021/05/29 02:23:43;;;;;;;2.70;0.50;;;;;;;;;;4914046;29;20054;-56
2021/05/29 02:26:11;;;;;;;3.05;0.60;;;;;;;;;;4914329;29;20047;-56
2021/05/29 02:28:38;;;;;;;4.28;0.60;;;;;;;;;;4914888;29;20051;-54
2021/05/29 02:31:08;;;;;;;2.67;0.70;;;;;;;;;;4916050;29;20058;-54
2021/05/29 02:33:34;;;;;;;1.77;0.47;;;;;;;;;;4914706;29;20418;-54
2021/05/29 02:36:00;;;;;;;1.23;0.50;;;;;;;;;;4916809;29;20166;-55
2021/05/29 02:38:27;;;;;;;0.52;0.30;;;;;;;;;;4916090;29;20140;-57
2021/05/29 02:40:52;;;;;;;1.38;0.55;;;;;;;;;;4913844;29;20064;-55
2021/05/29 02:43:18;;;;;;;1.38;0.50;;;;;;;;;;4912802;29;20496;-57
2021/05/29 02:45:45;;;;;;;0.95;0.40;;;;;;;;;;4916711;29;20047;-55
2021/05/29 02:48:13;;;;;;;0.77;0.40;;;;;;;;;;4914978;29;20056;-56
2021/05/29 02:50:39;;;;;;;0.30;0.30;;;;;;;;;;4915929;29;20044;-57
2021/05/29 02:53:05;;;;;;;0.47;0.30;;;;;;;;;;4915966;29;20036;-56
2021/05/29 02:55:32;;;;;;;1.38;0.47;;;;;;;;;;4915296;29;20059;-56
2021/05/29 02:57:59;;;;;;;0.90;0.40;;;;;;;;;;4916864;29;20151;-57
2021/05/29 03:00:26;;;;;;;0.88;0.32;;;;;;;;;;4914275;29;20041;-54
2021/05/29 03:02:52;;;;;;;2.95;0.40;;;;;;;;;;4915350;29;20101;-56
2021/05/29 03:05:19;;;;;;;1.50;0.40;;;;;;;;;;4913962;29;20032;-54
2021/05/29 03:07:46;;;;;;;0.35;0.30;;;;;;;;;;4915069;29;20067;-56
2021/05/29 03:10:13;;;;;;;1.25;0.40;;;;;;;;;;4912952;29;20134;-55
2021/05/29 03:12:39;;;;;;;2.08;0.57;;;;;;;;;;4914110;29;20047;-57
2021/05/29 03:15:07;;;;;;;3.92;0.88;;;;;;;;;;4915587;29;20043;-55
2021/05/29 03:17:33;;;;;;;2.63;0.77;;;;;;;;;;4913843;29;20103;-52
2021/05/29 03:19:58;;;;;;;2.50;0.60;;;;;;;;;;4916470;29;20090;-54
2021/05/29 03:22:24;;;;;;;2.40;0.60;;;;;;;;;;4913200;29;20036;-54
2021/05/29 03:24:50;;;;;;;1.67;0.40;;;;;;;;;;4913836;29;20047;-53
2021/05/29 03:27:18;;;;;;;1.30;0.50;;;;;;;;;;4915896;29;20039;-54
2021/05/29 03:29:44;;;;;;;3.83;0.60;;;;;;;;;;4913109;29;20278;-54
2021/05/29 03:32:10;;;;;;;2.05;0.45;;;;;;;;;;4914750;29;20032;-57
2021/05/29 03:34:36;;;;;;;2.25;0.40;;;;;;;;;;4894107;29;20047;-54
2021/05/29 03:37:02;;;;;;;3.20;0.80;;;;;;;;;;4918030;29;20091;-55
2021/05/29 03:39:28;;;;;;;5.65;1.33;;;;;;;;;;4916057;29;20067;-55
2021/05/29 03:41:54;;;;;;;2.60;0.70;;;;;;;;;;4916321;29;20107;-55
2021/05/29 03:44:19;;;;;;;3.95;0.80;;;;;;;;;;4915979;29;20075;-54
2021/05/29 03:46:45;;;;;;;5.35;1.10;;;;;;;;;;4915909;29;20135;-56
2021/05/29 03:49:11;;;;;;;4.68;0.77;;;;;;;;;;4914814;29;20052;-55
2021/05/29 03:51:37;;;;;;;3.45;0.90;;;;;;;;;;4915592;29;20628;-56
2021/05/29 03:54:02;;;;;;;6.20;1.00;;;;;;;;;;4916812;29;20039;-56
2021/05/29 03:56:28;;;;;;;4.15;0.90;;;;;;;;;;4914640;29;20044;-56
2021/05/29 03:58:54;;;;;;;3.10;0.80;;;;;;;;;;4916772;29;20043;-52
2021/05/29 04:01:20;;;;;;;5.68;0.73;;;;;;;;;;4914877;29;20391;-55
2021/05/29 04:03:46;;;;;;;5.93;0.60;;;;;;;;;;4917194;29;20071;-55
2021/05/29 04:06:11;;;;;;;9.73;1.05;;;;;;;;;;4917502;29;20098;-56
2021/05/29 04:08:37;;;;;;;10.65;1.00;;;;;;;;;;4917222;29;20139;-55
2021/05/29 04:11:03;;;;;;;10.93;1.55;;;;;;;;;;4918084;29;20151;-55
2021/05/29 04:13:29;;;;;;;5.07;0.80;;;;;;;;;;4918330;29;20060;-52
2021/05/29 04:15:55;;;;;;;4.95;1.40;;;;;;;;;;4922632;29;20075;-57
2021/05/29 04:18:20;;;;;;;7.55;1.20;;;;;;;;;;4921935;29;20055;-57
2021/05/29 04:20:46;;;;;;;10.00;1.30;;;;;;;;;;4925828;29;20185;-56
2021/05/29 04:23:12;;;;;;;12.15;1.50;;;;;;;;;;4925027;29;20047;-56
2021/05/29 04:25:38;;;;;;;11.50;1.35;;;;;;;;;;4921153;29;20646;-57
2021/05/29 04:28:04;;;;;;;9.93;1.08;;;;;;;;;;4920865;29;20965;-56
2021/05/29 04:30:30;;;;;;;12.07;1.52;;;;;;;;;;4921099;29;20107;-54
2021/05/29 04:32:56;;;;;;;10.90;1.17;;;;;;;;;;4919813;29;20039;-55
2021/05/29 04:35:22;;;;;;;9.52;1.40;;;;;;;;;;4919182;29;20064;-55
2021/05/29 04:37:49;;;;;;;8.15;1.50;;;;;;;;;;4919172;29;20043;-55
2021/05/29 04:40:15;;;;;;;14.00;1.30;;;;;;;;;;4920743;29;20046;-55
2021/05/29 04:42:41;;;;;;;7.38;1.20;;;;;;;;;;4920818;29;21028;-54
2021/05/29 04:45:09;;;;;;;8.75;1.10;;;;;;;;;;4920558;29;20051;-64
2021/05/29 04:47:35;;;;;;;8.23;1.50;;;;;;;;;;4919527;29;20130;-56
2021/05/29 04:50:00;;;;;;;8.98;1.35;;;;;;;;;;4920381;29;20545;-54
2021/05/29 04:52:26;;;;;;;7.50;1.40;;;;;;;;;;4917480;29;20411;-55
2021/05/29 04:54:52;;;;;;;10.90;1.80;;;;;;;;;;4918427;29;20044;-55
2021/05/29 04:57:18;;;;;;;6.90;1.70;;;;;;;;;;4920917;29;20038;-55
2021/05/29 04:59:44;;;;;;;6.05;1.60;;;;;;;;;;4919248;29;20043;-54
2021/05/29 05:02:10;;;;;;;14.68;3.28;;;;;;;;;;4919806;29;20035;-55
2021/05/29 05:04:35;;;;;;;11.60;1.90;;;;;;;;;;4918649;29;20140;-55
2021/05/29 05:07:01;;;;;;;8.80;1.73;;;;;;;;;;4921202;29;20147;-55
2021/05/29 05:09:27;;;;;;;3.70;1.65;;;;;;;;;;4916801;29;20054;-55
2021/05/29 05:11:53;;;;;;;13.55;2.22;;;;;;;;;;4919841;29;21336;-55
2021/05/29 05:14:19;;;;;;;12.32;1.75;;;;;;;;;;4920406;29;20047;-54
2021/05/29 05:16:45;;;;;;;10.88;1.35;;;;;;;;;;4921157;29;20047;-55
2021/05/29 05:19:11;;;;;;;10.15;1.45;;;;;;;;;;4920524;29;20036;-56
2021/05/29 05:21:36;;;;;;;13.18;1.60;;;;;;;;;;4918757;29;20570;-55
2021/05/29 05:24:03;;;;;;;18.17;1.83;;;;;;;;;;4919543;29;20123;-56
2021/05/29 05:26:28;;;;;;;15.45;1.70;;;;;;;;;;4918479;29;20069;-54
2021/05/29 05:28:54;;;;;;;10.13;1.40;;;;;;;;;;4919001;29;20052;-55
2021/05/29 05:31:20;;;;;;;9.00;1.33;;;;;;;;;;4919241;29;20202;-55
2021/05/29 05:33:47;;;;;;;11.02;1.48;;;;;;;;;;4919387;29;20126;-54
2021/05/29 05:36:14;;;;;;;10.68;1.40;;;;;;;;;;4919526;29;20044;-54
2021/05/29 05:38:41;;;;;;;18.98;1.40;;;;;;;;;;4919150;29;20066;-55
2021/05/29 05:41:07;;;;;;;8.38;1.05;;;;;;;;;;4921305;29;20032;-55
2021/05/29 05:43:33;;;;;;;7.40;1.27;;;;;;;;;;4918220;29;20040;-55
2021/05/29 05:45:59;;;;;;;4.30;1.00;;;;;;;;;;4920536;29;20623;-56
2021/05/29 05:48:25;;;;;;;14.00;1.55;;;;;;;;;;4920671;29;20047;-56
2021/05/29 05:50:58;;;;;;;7.45;1.38;;;;;;;;;;4921267;29;20047;-53
2021/05/29 05:53:25;;;;;;;7.88;1.40;;;;;;;;;;4918792;29;21054;-55
2021/05/29 05:55:55;;;;;;;8.10;1.33;;;;;;;;;;4921823;29;20048;-55
2021/05/29 05:58:21;;;;;;;6.50;1.05;;;;;;;;;;4919427;29;20044;-52
2021/05/29 06:00:47;;;;;;;12.57;1.60;;;;;;;;;;4920189;29;20040;-55
2021/05/29 06:03:13;;;;;;;9.68;1.85;;;;;;;;;;4919734;29;20043;-55
2021/05/29 06:05:39;;;;;;;8.00;1.30;;;;;;;;;;4920254;29;20130;-55
2021/05/29 06:08:04;;;;;;;12.13;1.50;;;;;;;;;;4919592;29;20517;-56
2021/05/29 06:10:30;;;;;;;9.93;1.52;;;;;;;;;;4916655;29;20058;-55
2021/05/29 06:12:56;;;;;;;8.27;1.42;;;;;;;;;;4918635;29;20130;-55
2021/05/29 06:20:33;;;;;;;9.35;1.40;;;;;;;;;;4919298;29;20738;-56
2021/05/29 06:22:59;;;;;;;8.32;1.65;;;;;;;;;;4919005;29;20040;-55
2021/05/29 06:25:25;;;;;;;6.05;1.38;;;;;;;;;;4918807;29;20043;-55
2021/05/29 06:27:50;;;;;;;7.93;1.75;;;;;;;;;;4919449;29;20047;-56
2021/05/29 06:30:16;;;;;;;11.82;1.48;;;;;;;;;;4916530;29;20062;-56
2021/05/29 06:32:42;;;;;;;7.13;1.25;;;;;;;;;;4917332;29;20067;-55
2021/05/29 06:35:08;;;;;;;11.45;1.55;;;;;;;;;;4918813;29;20040;-56
2021/05/29 06:37:37;;;;;;;10.65;1.42;;;;;;;;;;4918198;29;20078;-54
2021/05/29 06:40:04;;;;;;;7.13;1.05;;;;;;;;;;4916576;29;20170;-53
2021/05/29 06:42:30;;;;;;;7.88;1.30;;;;;;;;;;4915053;29;20044;-55
2021/05/29 06:44:56;;;;;;;8.85;1.30;;;;;;;;;;4917034;29;20044;-53
2021/05/29 06:47:21;;;;;;;9.32;1.40;;;;;;;;;;4918498;29;20054;-56
2021/05/29 06:49:47;;;;;;;8.18;1.50;;;;;;;;;;4919201;29;20131;-56
2021/05/29 06:52:15;;;;;;;6.97;1.30;;;;;;;;;;4916655;29;20123;-56
2021/05/29 06:59:52;;;;;;;7.70;1.40;;;;;;;;;;4916613;29;20055;-56
2021/05/29 07:02:18;;;;;;;7.85;1.50;;;;;;;;;;4915256;29;20054;-53
2021/05/29 07:04:44;;;;;;;4.93;1.20;;;;;;;;;;4916944;29;20483;-56
2021/05/29 07:07:09;;;;;;;5.35;1.08;;;;;;;;;;4916469;29;20040;-56
2021/05/29 07:09:35;;;;;;;5.00;1.10;;;;;;;;;;4916341;29;20138;-54
2021/05/29 07:12:01;;;;;;;7.68;1.00;;;;;;;;;;4916806;29;20039;-54
2021/05/29 07:14:27;;;;;;;3.70;0.90;;;;;;;;;;4916864;29;20177;-56
2021/05/29 07:16:54;;;;;;;4.47;1.00;;;;;;;;;;4917435;29;20538;-54
2021/05/29 07:19:20;;;;;;;5.47;0.98;;;;;;;;;;4917625;29;20048;-56
2021/05/29 07:21:47;;;;;;;7.28;1.25;;;;;;;;;;4917722;29;20110;-56
2021/05/29 07:24:13;;;;;;;3.35;0.80;;;;;;;;;;4917387;29;20447;-55
2021/05/29 07:26:39;;;;;;;6.60;0.80;;;;;;;;;;4917499;29;20051;-56
2021/05/29 07:29:05;;;;;;;3.90;0.80;;;;;;;;;;4918885;29;20066;-56
2021/05/29 07:31:31;;;;;;;6.05;1.02;;;;;;;;;;4916813;29;20055;-56
2021/05/29 07:33:57;;;;;;;12.95;1.20;;;;;;;;;;4918324;29;20055;-55
2021/05/29 07:36:23;;;;;;;8.93;0.80;;;;;;;;;;4918901;29;20063;-56
2021/05/29 07:38:49;;;;;;;7.63;1.77;;;;;;;;;;4920692;29;20099;-56
2021/05/29 07:41:15;;;;;;;5.13;1.42;;;;;;;;;;4919124;29;20154;-54
2021/05/29 07:43:41;;;;;;;5.78;1.00;;;;;;;;;;4920143;29;20040;-54
2021/05/29 07:46:07;;;;;;;6.88;1.00;;;;;;;;;;4920715;29;20091;-53
2021/05/29 07:48:33;;;;;;;3.83;0.98;;;;;;;;;;4919442;29;20055;-56
2021/05/29 07:51:03;;;;;;;3.25;1.60;;;;;;;;;;4918580;29;20096;-52
2021/05/29 07:53:33;;;;;;;7.53;1.42;;;;;;;;;;4916740;29;20571;-53
2021/05/29 07:55:59;;;;;;;5.70;0.80;;;;;;;;;;4923903;29;20691;-56
2021/05/29 07:58:26;;;;;;;2.85;0.60;;;;;;;;;;4923977;29;20082;-56
2021/05/29 08:00:52;;;;;;;2.00;0.40;;;;;;;;;;4922575;29;20914;-55
2021/05/29 08:03:25;;;;;;;1.88;0.50;;;;;;;;;;4921101;29;20042;-56
2021/05/29 08:05:52;;;;;;;5.47;0.50;;;;;;;;;;4923400;29;20054;-56
2021/05/29 08:08:22;;;;;;;1.50;0.50;;;;;;;;;;4922998;29;20098;-56
2021/05/29 08:10:49;;;;;;;2.78;1.25;;;;;;;;;;4924444;29;20083;-55
2021/05/29 08:13:16;;;;;;;1.10;0.35;;;;;;;;;;4922977;29;20150;-56
2021/05/29 08:15:42;;;;;;;1.10;0.40;;;;;;;;;;4921828;29;20074;-56
2021/05/29 08:18:08;;;;;;;0.75;0.40;;;;;;;;;;4924006;29;20039;-56
2021/05/29 08:20:38;;;;;;;1.33;0.40;;;;;;;;;;4923608;29;20439;-53
2021/05/29 08:23:04;;;;;;;1.17;0.40;;;;;;;;;;4922862;29;20458;-56
2021/05/29 08:25:31;;;;;;;2.13;0.40;;;;;;;;;;4923144;29;20040;-56
2021/05/29 08:27:57;;;;;;;1.52;0.40;;;;;;;;;;4904392;29;20061;-55
2021/05/29 08:30:23;;;;;;;0.50;0.38;;;;;;;;;;4907398;29;20051;-56
2021/05/29 08:32:49;;;;;;;3.08;0.70;;;;;;;;;;4921812;29;20082;-56
2021/05/29 08:35:15;;;;;;;0.63;0.40;;;;;;;;;;4922398;29;20046;-56
2021/05/29 08:37:44;;;;;;;1.77;0.50;;;;;;;;;;4921594;29;20054;-57
2021/05/29 08:40:10;;;;;;;4.18;0.50;;;;;;;;;;4922431;29;20047;-55
2021/05/29 08:42:36;;;;;;;3.85;0.50;;;;;;;;;;4921660;29;20507;-57
2021/05/29 08:45:02;;;;;;;1.35;0.40;;;;;;;;;;4922771;29;20111;-53
2021/05/29 08:47:28;;;;;;;1.20;0.40;;;;;;;;;;4921077;29;20509;-57
2021/05/29 08:49:54;;;;;;;1.33;0.50;;;;;;;;;;4923417;29;20071;-56
2021/05/29 08:52:20;;;;;;;0.85;0.40;;;;;;;;;;4922114;29;20047;-56
2021/05/29 08:54:46;;;;;;;2.38;0.40;;;;;;;;;;4920743;29;20184;-54
2021/05/29 08:57:15;;;;;;;1.70;0.50;;;;;;;;;;4922043;29;20547;-52
2021/05/29 08:59:41;;;;;;;1.70;0.50;;;;;;;;;;4922487;29;20827;-55
2021/05/29 09:02:07;;;;;;;1.88;0.50;;;;;;;;;;4917238;29;20032;-55
2021/05/29 09:04:33;;;;;;;0.70;0.40;;;;;;;;;;4922052;29;20134;-55
2021/05/29 09:06:59;;;;;;;1.38;0.50;;;;;;;;;;4921700;29;20123;-53
2021/05/29 09:09:25;;;;;;;0.90;0.43;;;;;;;;;;4919783;29;20052;-52
2021/05/29 09:11:52;;;;;;;1.45;0.50;;;;;;;;;;4901342;29;20043;-56
2021/05/29 09:14:29;;;;;;;1.20;0.47;;;;;;;;;;4918448;29;20054;-53
2021/05/29 09:17:02;;;;;;;2.08;0.40;;;;;;;;;;4919173;29;20044;-55
2021/05/29 09:19:28;;;;;;;1.92;0.60;;;;;;;;;;4918974;29;20083;-55
2021/05/29 09:21:54;;;;;;;2.10;0.50;;;;;;;;;;4918973;29;20051;-54
2021/05/29 09:24:20;;;;;;;1.38;0.50;;;;;;;;;;4918008;29;20078;-56
2021/05/29 09:26:48;;;;;;;1.90;0.60;;;;;;;;;;4918254;29;20054;-53
2021/05/29 09:29:17;;;;;;;1.58;0.50;;;;;;;;;;4918113;29;20047;-54
2021/05/29 09:32:15;;;;;;;2.53;0.60;;;;;;;;;;4917835;29;20905;-55
2021/05/29 09:34:43;;;;;;;2.00;0.50;;;;;;;;;;4874018;29;20044;-55
2021/05/29 09:37:13;;;;;;;2.80;0.52;;;;;;;;;;4918213;29;20040;-54
2021/05/29 09:39:41;;;;;;;1.45;0.40;;;;;;;;;;4917472;29;20990;-55
2021/05/29 09:42:07;;;;;;;1.50;0.50;;;;;;;;;;4918029;29;20095;-53
2021/05/29 09:44:33;;;;;;;3.53;0.57;;;;;;;;;;4917337;29;20084;-55
2021/05/29 09:47:00;;;;;;;2.00;0.50;;;;;;;;;;4917731;29;20192;-56
2021/05/29 09:49:41;;;;;;;1.40;0.40;;;;;;;;;;4917034;29;20130;-54
2021/05/29 09:52:25;;;;;;;0.90;0.40;;;;;;;;;;4917639;29;21046;-56
2021/05/29 09:54:55;;;;;;;1.27;0.40;;;;;;;;;;4917426;29;20044;-57
2021/05/29 09:57:21;;;;;;;1.23;0.50;;;;;;;;;;4917407;29;20071;-52
2021/05/29 10:00:19;;;;;;;1.05;0.40;;;;;;;;;;4917164;29;20612;-55
2021/05/29 10:03:01;;;;;;;2.22;0.47;;;;;;;;;;4879483;29;20052;-53
2021/05/29 10:05:32;;;;;;;1.13;0.40;;;;;;;;;;4917618;29;20039;-56
2021/05/29 10:07:57;;;;;;;1.98;0.45;;;;;;;;;;4919301;29;20039;-55
2021/05/29 10:10:24;;;;;;;1.52;0.50;;;;;;;;;;4918636;29;20111;-56
2021/05/29 10:12:49;;;;;;;1.00;0.40;;;;;;;;;;4916392;29;20056;-55
2021/05/29 10:15:18;;;;;;;0.88;0.40;;;;;;;;;;4916071;29;20038;-55
2021/05/29 10:17:45;;;;;;;1.20;0.40;;;;;;;;;;4916163;29;20054;-54
2021/05/29 10:20:11;;;;;;;1.77;0.40;;;;;;;;;;4916731;29;20043;-54
2021/05/29 10:22:37;;;;;;;1.45;0.32;;;;;;;;;;4918254;29;20028;-54
2021/05/29 10:25:10;;;;;;;0.90;0.40;;;;;;;;;;4918720;29;20031;-54
2021/05/29 10:27:36;;;;;;;1.35;0.40;;;;;;;;;;4915466;29;20043;-56
2021/05/29 10:30:02;;;;;;;0.52;0.40;;;;;;;;;;4914950;29;20043;-54
2021/05/29 10:32:28;;;;;;;0.88;0.40;;;;;;;;;;4916645;29;20039;-52
2021/05/29 10:35:10;;;;;;;4.28;0.50;;;;;;;;;;4919618;29;20052;-53
2021/05/29 10:37:39;;;;;;;2.28;0.50;;;;;;;;;;4916475;29;20082;-56
2021/05/29 10:40:13;;;;;;;1.77;0.40;;;;;;;;;;4918147;29;21073;-55
2021/05/29 10:42:38;;;;;;;1.30;0.40;;;;;;;;;;4896363;29;20048;-54
2021/05/29 10:45:14;;;;;;;0.85;0.40;;;;;;;;;;4917325;29;20405;-55
2021/05/29 10:47:59;;;;;;;3.00;0.50;;;;;;;;;;4900681;29;20423;-53
2021/05/29 10:50:53;;;;;;;1.45;0.45;;;;;;;;;;4915518;29;20062;-54
2021/05/29 10:53:34;;;;;;;0.98;0.40;;;;;;;;;;4916545;29;20174;-55
2021/05/29 10:56:18;;;;;;;1.20;0.45;;;;;;;;;;4917067;29;20039;-53
2021/05/29 10:59:04;;;;;;;1.52;0.40;;;;;;;;;;4916412;29;20040;-55
2021/05/29 11:01:43;;;;;;;1.98;0.43;;;;;;;;;;4917246;29;21010;-55
2021/05/29 11:04:15;;;;;;;2.70;0.60;;;;;;;;;;4916758;29;20040;-54
2021/05/29 11:06:47;;;;;;;2.65;0.60;;;;;;;;;;4916734;29;20107;-55
2021/05/29 11:09:14;;;;;;;1.33;0.50;;;;;;;;;;4919109;29;20087;-55
2021/05/29 11:11:57;;;;;;;2.33;0.60;;;;;;;;;;4917535;29;20044;-52
2021/05/29 11:14:31;;;;;;;1.48;0.40;;;;;;;;;;4916540;29;20523;-52
2021/05/29 11:16:57;;;;;;;1.25;0.50;;;;;;;;;;4918936;29;20064;-55
2021/05/29 11:19:27;;;;;;;2.30;0.50;;;;;;;;;;4916590;29;20068;-52
2021/05/29 11:22:09;;;;;;;1.80;0.40;;;;;;;;;;4917304;29;20044;-53
2021/05/29 11:24:40;;;;;;;2.67;0.50;;;;;;;;;;4918284;29;20072;-55
2021/05/29 11:27:15;;;;;;;3.67;0.50;;;;;;;;;;4920257;29;20051;-54
2021/05/29 11:29:47;;;;;;;2.08;0.50;;;;;;;;;;4922072;29;20051;-55
2021/05/29 11:32:13;;;;;;;1.88;0.50;;;;;;;;;;4921240;29;20135;-55
2021/05/29 11:34:42;;;;;;;4.57;0.50;;;;;;;;;;4919981;29;20169;-53
2021/05/29 11:37:15;;;;;;;2.75;0.60;;;;;;;;;;4918808;29;20032;-52
2021/05/29 11:39:52;;;;;;;2.65;0.50;;;;;;;;;;4917941;29;20483;-55
2021/05/29 11:42:18;;;;;;;3.50;0.50;;;;;;;;;;4918096;29;20044;-54
2021/05/29 11:44:44;;;;;;;2.60;0.60;;;;;;;;;;4918757;29;20055;-55
2021/05/29 11:47:17;;;;;;;1.17;0.47;;;;;;;;;;4918363;29;20131;-55
2021/05/29 11:49:43;;;;;;;2.17;0.55;;;;;;;;;;4916295;29;20170;-56
2021/05/29 11:52:09;;;;;;;1.90;0.60;;;;;;;;;;4916064;29;20189;-53
2021/05/29 11:54:36;;;;;;;1.35;0.50;;;;;;;;;;4916578;29;20051;-54
2021/05/29 11:57:03;;;;;;;2.58;0.52;;;;;;;;;;4918272;29;20043;-56
2021/05/29 11:59:28;;;;;;;2.38;0.90;;;;;;;;;;4914456;29;20151;-53
2021/05/29 12:01:55;;;;;;;1.98;0.55;;;;;;;;;;4918471;29;20134;-53
2021/05/29 12:04:26;;;;;;;1.75;0.50;;;;;;;;;;4915949;29;20077;-52
2021/05/29 12:06:56;;;;;;;2.40;0.47;;;;;;;;;;4917470;29;20044;-53
2021/05/29 12:09:28;;;;;;;3.45;0.50;;;;;;;;;;4914902;29;20063;-52
2021/05/29 12:11:55;;;;;;;3.05;0.80;;;;;;;;;;4916158;29;20036;-54
2021/05/29 12:14:30;;;;;;;2.10;0.60;;;;;;;;;;4916307;29;20047;-54
2021/05/29 12:16:58;;;;;;;3.50;0.40;;;;;;;;;;4917949;29;20154;-54
2021/05/29 12:19:44;;;;;;;2.88;0.70;;;;;;;;;;4915078;29;20032;-55
2021/05/29 12:22:10;;;;;;;2.28;0.50;;;;;;;;;;4911992;29;20035;-54
2021/05/29 12:24:46;;;;;;;1.30;0.43;;;;;;;;;;4916224;29;20047;-55
2021/05/29 12:27:19;;;;;;;2.00;0.60;;;;;;;;;;4916292;29;20430;-57
2021/05/29 12:29:45;;;;;;;2.90;0.50;;;;;;;;;;4917100;29;20071;-54
2021/05/29 12:32:31;;;;;;;1.67;0.50;;;;;;;;;;4917445;29;20515;-54
2021/05/29 12:34:57;;;;;;;2.08;0.40;;;;;;;;;;4916008;29;20039;-55
2021/05/29 12:37:32;;;;;;;3.97;0.50;;;;;;;;;;4915882;29;20158;-53
2021/05/29 12:39:58;;;;;;;3.83;0.50;;;;;;;;;;4917630;29;20051;-53
2021/05/29 12:42:24;;;;;;;1.48;0.50;;;;;;;;;;4919582;29;20047;-55
2021/05/29 12:44:51;;;;;;;3.80;0.60;;;;;;;;;;4920191;29;20042;-55
2021/05/29 12:47:17;;;;;;;1.95;0.40;;;;;;;;;;4921059;29;20039;-54
2021/05/29 12:49:43;;;;;;;2.38;0.50;;;;;;;;;;4919705;29;20170;-52
2021/05/29 12:52:20;;;;;;;1.50;0.43;;;;;;;;;;4920264;29;20036;-53
2021/05/29 12:54:46;;;;;;;2.53;0.70;;;;;;;;;;4919352;29;20044;-54
2021/05/29 12:57:12;;;;;;;2.05;0.60;;;;;;;;;;4920023;29;20055;-55
2021/05/29 12:59:38;;;;;;;3.22;0.70;;;;;;;;;;4919391;29;20531;-55
2021/05/29 13:07:38;;;;;;;4.18;0.63;;;;;;;;;;4917048;29;20058;-56
2021/05/29 13:12:36;;;;;;;2.20;0.50;;;;;;;;;;4919496;29;20040;-55
2021/05/29 13:15:15;;;;;;;1.73;0.60;;;;;;;;;;4920044;29;20181;-56
2021/05/29 13:17:41;;;;;;;3.78;0.50;;;;;;;;;;4920166;29;20058;-56
2021/05/29 13:20:14;;;;;;;1.88;0.50;;;;;;;;;;4919531;29;20054;-55
2021/05/29 13:22:40;;;;;;;1.77;0.50;;;;;;;;;;4920882;29;20087;-56
2021/05/29 13:25:06;;;;;;;4.68;0.60;;;;;;;;;;4923684;29;20055;-55
2021/05/29 13:27:32;;;;;;;2.47;0.50;;;;;;;;;;4921399;29;20451;-57
2021/05/29 13:30:19;;;;;;;1.15;0.40;;;;;;;;;;4922505;29;20498;-57
2021/05/29 13:32:49;;;;;;;2.55;0.40;;;;;;;;;;4920239;29;20039;-56
2021/05/29 13:35:15;;;;;;;0.95;0.40;;;;;;;;;;4922232;29;20376;-53
2021/05/29 13:37:41;;;;;;;2.75;0.50;;;;;;;;;;4921575;29;20035;-56
2021/05/29 13:40:08;;;;;;;2.67;0.47;;;;;;;;;;4923460;29;20063;-56
2021/05/29 13:42:34;;;;;;;4.53;0.60;;;;;;;;;;4920853;29;20054;-57
2021/05/29 13:44:59;;;;;;;1.77;0.50;;;;;;;;;;4919029;29;20047;-55
2021/05/29 13:47:25;;;;;;;2.38;0.50;;;;;;;;;;4919413;29;20044;-55
2021/05/29 13:49:51;;;;;;;4.82;0.60;;;;;;;;;;4920091;29;20775;-55
2021/05/29 13:52:17;;;;;;;3.30;0.50;;;;;;;;;;4919080;29;20035;-57
2021/05/29 13:54:43;;;;;;;2.03;0.40;;;;;;;;;;4918007;28;20059;-55
2021/05/29 13:57:09;;;;;;;2.33;0.50;;;;;;;;;;4921745;29;20038;-57
2021/05/29 13:59:36;;;;;;;3.75;0.57;;;;;;;;;;4919489;29;20039;-57
2021/05/29 14:02:02;;;;;;;1.77;0.50;;;;;;;;;;4920528;29;20031;-56
2021/05/29 14:04:28;;;;;;;2.53;0.40;;;;;;;;;;4920872;29;20054;-56
2021/05/29 14:06:55;;;;;;;5.47;0.60;;;;;;;;;;4922121;29;20047;-56
2021/05/29 14:09:21;;;;;;;1.80;0.60;;;;;;;;;;4917983;29;20399;-57
2021/05/29 14:11:50;;;;;;;2.15;0.50;;;;;;;;;;4919403;29;20075;-56
2021/05/29 14:14:16;;;;;;;3.67;0.45;;;;;;;;;;4919970;29;20499;-56
2021/05/29 14:16:42;;;;;;;2.55;0.55;;;;;;;;;;4918064;29;20078;-57
2021/05/29 14:19:08;;;;;;;2.95;0.55;;;;;;;;;;4919549;29;20050;-57
2021/05/29 14:21:34;;;;;;;2.50;0.43;;;;;;;;;;4918746;29;20363;-56
2021/05/29 14:24:01;;;;;;;1.38;0.50;;;;;;;;;;4920272;29;20035;-57
2021/05/29 14:26:30;;;;;;;2.58;0.50;;;;;;;;;;4919928;29;20088;-57
2021/05/29 14:28:57;;;;;;;2.25;0.47;;;;;;;;;;4920199;29;20660;-57
2021/05/29 14:31:23;;;;;;;1.60;0.50;;;;;;;;;;4919069;29;20044;-56
2021/05/29 14:33:49;;;;;;;4.63;0.50;;;;;;;;;;4922162;29;20391;-56
2021/05/29 14:36:15;;;;;;;1.75;0.50;;;;;;;;;;4923074;29;20040;-55
2021/05/29 14:38:43;;;;;;;3.10;0.50;;;;;;;;;;4920346;29;20047;-55
2021/05/29 14:41:09;;;;;;;2.30;0.50;;;;;;;;;;4921650;29;20059;-54
2021/05/29 14:43:35;;;;;;;1.40;0.40;;;;;;;;;;4920380;29;20039;-57
2021/05/29 14:46:01;;;;;;;3.40;0.60;;;;;;;;;;4918668;29;20051;-56
2021/05/29 14:48:26;;;;;;;1.48;0.52;;;;;;;;;;4918766;29;20095;-55
2021/05/29 14:53:37;;;;;;;1.10;0.40;;;;;;;;;;4918445;29;20039;-56
2021/05/29 14:56:03;;;;;;;1.52;0.40;;;;;;;;;;4918391;29;20036;-57
2021/05/29 14:58:29;;;;;;;1.15;0.40;;;;;;;;;;4917926;29;20047;-55
2021/05/29 15:00:55;;;;;;;1.00;0.40;;;;;;;;;;4915383;29;20464;-54
2021/05/29 15:03:21;;;;;;;2.08;0.50;;;;;;;;;;4917402;29;20048;-55
2021/05/29 15:05:47;;;;;;;1.25;0.50;;;;;;;;;;4918516;29;20047;-56
2021/05/29 15:08:13;;;;;;;2.30;0.45;;;;;;;;;;4919069;29;20587;-55